Time,TemperatureF,DewpointF,PressureIn,WindDirection,WindDirectionDegrees,WindSpeedMPH,WindSpeedGustMPH,Humidity,HourlyPrecipIn,Conditions,Clouds,dailyrainin,SolarRadiationWatts/m^2,SoftwareType,DateUTC
2013-08-30 00:02:00,61.0,51.0,-100.00,SW,228,5.0,10.0,70,0.00,,,0.01,0.000000,,2013-08-30 07:02:00,
2013-08-30 00:12:00,61.0,51.0,-100.00,SW,228,5.0,10.0,70,0.00,,,0.01,0.000000,,2013-08-30 07:12:00,
2013-08-30 00:21:00,61.0,51.0,-100.00,SW,228,5.0,10.0,70,0.00,,,0.01,0.000000,,2013-08-30 07:21:00,
2013-08-30 00:31:00,61.0,50.0,-100.00,South,173,3.0,11.0,66,0.00,,,0.01,0.000000,,2013-08-30 07:31:00,
2013-08-30 00:53:00,61.0,50.0,-100.00,South,173,3.0,11.0,66,0.00,,,0.01,0.000000,,2013-08-30 07:53:00,
2013-08-30 01:03:00,61.0,50.0,-100.00,South,173,3.0,11.0,66,0.00,,,0.01,0.000000,,2013-08-30 08:03:00,
2013-08-30 01:11:00,61.0,50.0,-100.00,South,173,3.0,11.0,66,0.00,,,0.01,0.000000,,2013-08-30 08:11:00,
2013-08-30 01:22:00,61.0,50.0,-100.00,South,173,3.0,11.0,66,0.00,,,0.01,0.000000,,2013-08-30 08:22:00,
2013-08-30 01:31:00,60.0,50.0,-100.00,SSW,194,4.0,10.0,70,0.00,,,0.01,0.000000,,2013-08-30 08:31:00,
2013-08-30 02:12:00,60.0,50.0,-100.00,SSW,194,4.0,10.0,70,0.00,,,0.01,0.000000,,2013-08-30 09:12:00,
2013-08-30 02:22:00,60.0,50.0,-100.00,SSW,194,4.0,10.0,70,0.00,,,0.01,0.000000,,2013-08-30 09:22:00,
2013-08-30 02:31:00,58.0,49.0,-100.00,South,179,5.0,8.0,72,0.00,,,0.01,0.000000,,2013-08-30 09:31:00,
2013-08-30 02:53:00,58.0,49.0,-100.00,South,179,5.0,8.0,72,0.00,,,0.01,0.000000,,2013-08-30 09:53:00,
2013-08-30 03:03:00,58.0,49.0,-100.00,South,179,5.0,8.0,72,0.00,,,0.01,0.000000,,2013-08-30 10:03:00,
2013-08-30 03:12:00,58.0,49.0,-100.00,South,179,5.0,8.0,72,0.00,,,0.01,0.000000,,2013-08-30 10:12:00,
2013-08-30 03:23:00,58.0,49.0,-100.00,South,179,5.0,8.0,72,0.00,,,0.01,0.000000,,2013-08-30 10:23:00,
2013-08-30 03:31:00,57.0,50.0,-100.00,SSW,196,5.0,9.0,77,0.00,,,0.01,0.000000,,2013-08-30 10:31:00,
2013-08-30 03:53:00,57.0,50.0,-100.00,SSW,196,5.0,9.0,77,0.00,,,0.01,0.000000,,2013-08-30 10:53:00,
2013-08-30 04:03:00,57.0,50.0,-100.00,SSW,196,5.0,9.0,77,0.00,,,0.01,0.000000,,2013-08-30 11:03:00,
2013-08-30 04:12:00,57.0,50.0,-100.00,SSW,196,5.0,9.0,77,0.00,,,0.01,0.000000,,2013-08-30 11:12:00,
2013-08-30 04:22:00,57.0,50.0,-100.00,SSW,196,5.0,9.0,77,0.00,,,0.01,0.000000,,2013-08-30 11:22:00,
2013-08-30 04:31:00,57.0,50.0,-100.00,SW,221,4.0,10.0,78,0.00,,,0.01,0.000000,,2013-08-30 11:31:00,
2013-08-30 04:52:00,57.0,50.0,-100.00,SW,221,4.0,10.0,78,0.00,,,0.01,0.000000,,2013-08-30 11:52:00,
2013-08-30 05:01:00,57.0,50.0,-100.00,SW,221,4.0,10.0,78,0.00,,,0.01,0.000000,,2013-08-30 12:01:00,
2013-08-30 05:12:00,57.0,50.0,-100.00,SW,221,4.0,10.0,78,0.00,,,0.01,0.000000,,2013-08-30 12:12:00,
2013-08-30 05:21:00,57.0,50.0,-100.00,SW,221,4.0,10.0,78,0.00,,,0.01,0.000000,,2013-08-30 12:21:00,
2013-08-30 05:31:00,56.0,50.0,-100.00,South,176,4.0,8.0,80,0.00,,,0.01,0.000000,,2013-08-30 12:31:00,
2013-08-30 05:52:00,56.0,50.0,-100.00,South,176,4.0,8.0,80,0.00,,,0.01,0.000000,,2013-08-30 12:52:00,
2013-08-30 06:02:00,56.0,50.0,-100.00,South,176,4.0,8.0,80,0.00,,,0.01,0.000000,,2013-08-30 13:02:00,
2013-08-30 06:11:00,56.0,50.0,-100.00,South,176,4.0,8.0,80,0.00,,,0.01,0.000000,,2013-08-30 13:11:00,
2013-08-30 06:21:00,56.0,50.0,-100.00,South,176,4.0,8.0,80,0.00,,,0.01,0.000000,,2013-08-30 13:21:00,
2013-08-30 06:31:00,56.0,52.0,-100.00,SSW,210,4.0,9.0,85,0.00,,,0.01,0.000000,,2013-08-30 13:31:00,
2013-08-30 06:52:00,56.0,52.0,-100.00,SSW,210,4.0,9.0,85,0.00,,,0.01,0.000000,,2013-08-30 13:52:00,
2013-08-30 07:02:00,56.0,52.0,-100.00,SSW,210,4.0,9.0,85,0.00,,,0.01,0.000000,,2013-08-30 14:02:00,
2013-08-30 07:11:00,56.0,52.0,-100.00,SSW,210,4.0,9.0,85,0.00,,,0.01,0.000000,,2013-08-30 14:11:00,
2013-08-30 07:21:00,56.0,52.0,-100.00,SSW,210,4.0,9.0,85,0.00,,,0.01,0.000000,,2013-08-30 14:21:00,
2013-08-30 07:31:00,56.0,52.0,-100.00,South,189,4.0,7.0,85,0.00,,,0.01,12.000000,,2013-08-30 14:31:00,
2013-08-30 07:52:00,56.0,52.0,-100.00,South,189,4.0,7.0,85,0.00,,,0.01,12.000000,,2013-08-30 14:52:00,
2013-08-30 08:02:00,56.0,52.0,-100.00,South,189,4.0,7.0,85,0.00,,,0.01,12.000000,,2013-08-30 15:02:00,
2013-08-30 08:11:00,56.0,52.0,-100.00,South,189,4.0,7.0,85,0.00,,,0.01,12.000000,,2013-08-30 15:11:00,
2013-08-30 08:22:00,56.0,52.0,-100.00,South,189,4.0,7.0,85,0.00,,,0.01,12.000000,,2013-08-30 15:22:00,
2013-08-30 08:31:00,63.0,53.0,-100.00,South,184,5.0,7.0,71,0.00,,,0.01,207.000000,,2013-08-30 15:31:00,
2013-08-30 09:13:00,63.0,53.0,-100.00,South,184,5.0,7.0,71,0.00,,,0.01,207.000000,,2013-08-30 16:13:00,
2013-08-30 09:24:00,63.0,53.0,-100.00,South,184,5.0,7.0,71,0.00,,,0.01,207.000000,,2013-08-30 16:24:00,
2013-08-30 09:31:00,66.0,53.0,-100.00,South,178,5.0,10.0,62,0.00,,,0.01,440.000000,,2013-08-30 16:31:00,
2013-08-30 09:53:00,66.0,53.0,-100.00,South,178,5.0,10.0,62,0.00,,,0.01,440.000000,,2013-08-30 16:53:00,
2013-08-30 10:03:00,66.0,53.0,-100.00,South,178,5.0,10.0,62,0.00,,,0.01,440.000000,,2013-08-30 17:03:00,
2013-08-30 10:23:00,66.0,53.0,-100.00,South,178,5.0,10.0,62,0.00,,,0.01,440.000000,,2013-08-30 17:23:00,
2013-08-30 10:31:00,69.0,52.0,-100.00,SSE,157,6.0,12.0,54,0.00,,,0.01,625.000000,,2013-08-30 17:31:00,
2013-08-30 10:53:00,69.0,52.0,-100.00,SSE,157,6.0,12.0,54,0.00,,,0.01,625.000000,,2013-08-30 17:53:00,
2013-08-30 11:02:00,69.0,52.0,-100.00,SSE,157,6.0,12.0,54,0.00,,,0.01,625.000000,,2013-08-30 18:02:00,
2013-08-30 11:12:00,69.0,52.0,-100.00,SSE,157,6.0,12.0,54,0.00,,,0.01,625.000000,,2013-08-30 18:12:00,
2013-08-30 11:21:00,69.0,52.0,-100.00,SSE,157,6.0,12.0,54,0.00,,,0.01,625.000000,,2013-08-30 18:21:00,
2013-08-30 11:31:00,73.0,48.0,-100.00,SSW,203,5.0,15.0,41,0.00,,,0.01,811.000000,,2013-08-30 18:31:00,
2013-08-30 11:52:00,73.0,48.0,-100.00,SSW,203,5.0,15.0,41,0.00,,,0.01,811.000000,,2013-08-30 18:52:00,
2013-08-30 12:01:00,73.0,48.0,-100.00,SSW,203,5.0,15.0,41,0.00,,,0.01,811.000000,,2013-08-30 19:01:00,
2013-08-30 12:12:00,73.0,48.0,-100.00,SSW,203,5.0,15.0,41,0.00,,,0.01,811.000000,,2013-08-30 19:12:00,
2013-08-30 12:21:00,73.0,48.0,-100.00,SSW,203,5.0,15.0,41,0.00,,,0.01,811.000000,,2013-08-30 19:21:00,
2013-08-30 12:31:00,74.0,47.0,-100.00,SSW,202,6.0,12.0,38,0.00,,,0.01,676.000000,,2013-08-30 19:31:00,
2013-08-30 12:53:00,74.0,47.0,-100.00,SSW,202,6.0,12.0,38,0.00,,,0.01,676.000000,,2013-08-30 19:53:00,
2013-08-30 13:03:00,74.0,47.0,-100.00,SSW,202,6.0,12.0,38,0.00,,,0.01,676.000000,,2013-08-30 20:03:00,
2013-08-30 13:11:00,74.0,47.0,-100.00,SSW,202,6.0,12.0,38,0.00,,,0.01,676.000000,,2013-08-30 20:11:00,
2013-08-30 13:22:00,74.0,47.0,-100.00,SSW,202,6.0,12.0,38,0.00,,,0.01,676.000000,,2013-08-30 20:22:00,
2013-08-30 13:31:00,76.0,45.0,-100.00,South,175,4.0,12.0,33,0.00,,,0.01,798.000000,,2013-08-30 20:31:00,
2013-08-30 13:52:00,76.0,45.0,-100.00,South,175,4.0,12.0,33,0.00,,,0.01,798.000000,,2013-08-30 20:52:00,
2013-08-30 14:02:00,76.0,45.0,-100.00,South,175,4.0,12.0,33,0.00,,,0.01,798.000000,,2013-08-30 21:02:00,
2013-08-30 14:11:00,76.0,45.0,-100.00,South,175,4.0,12.0,33,0.00,,,0.01,798.000000,,2013-08-30 21:11:00,
2013-08-30 14:21:00,76.0,45.0,-100.00,South,175,4.0,12.0,33,0.00,,,0.01,798.000000,,2013-08-30 21:21:00,
2013-08-30 14:31:00,78.0,46.0,-100.00,NNE,29,4.0,9.0,32,0.00,,,0.01,538.000000,,2013-08-30 21:31:00,
2013-08-30 14:55:00,78.0,46.0,-100.00,NNE,29,4.0,9.0,32,0.00,,,0.01,538.000000,,2013-08-30 21:55:00,
2013-08-30 15:04:00,78.0,46.0,-100.00,NNE,29,4.0,9.0,32,0.00,,,0.01,538.000000,,2013-08-30 22:04:00,
2013-08-30 15:13:00,78.0,46.0,-100.00,NNE,29,4.0,9.0,32,0.00,,,0.01,538.000000,,2013-08-30 22:13:00,
2013-08-30 15:24:00,78.0,46.0,-100.00,NNE,29,4.0,9.0,32,0.00,,,0.01,538.000000,,2013-08-30 22:24:00,
2013-08-30 15:31:00,82.0,45.0,-100.00,NNW,327,3.0,8.0,27,0.00,,,0.01,665.000000,,2013-08-30 22:31:00,
2013-08-30 15:54:00,82.0,45.0,-100.00,NNW,327,3.0,8.0,27,0.00,,,0.01,665.000000,,2013-08-30 22:54:00,
2013-08-30 16:03:00,82.0,45.0,-100.00,NNW,327,3.0,8.0,27,0.00,,,0.01,665.000000,,2013-08-30 23:03:00,
2013-08-30 16:12:00,82.0,45.0,-100.00,NNW,327,3.0,8.0,27,0.00,,,0.01,665.000000,,2013-08-30 23:12:00,
2013-08-30 16:22:00,82.0,45.0,-100.00,NNW,327,3.0,8.0,27,0.00,,,0.01,665.000000,,2013-08-30 23:22:00,
2013-08-30 16:31:00,82.0,44.0,-100.00,NE,50,3.0,8.0,26,0.00,,,0.00,617.000000,,2013-08-30 23:31:00,
2013-08-30 16:53:00,82.0,44.0,-100.00,NE,50,3.0,8.0,26,0.00,,,0.00,617.000000,,2013-08-30 23:53:00,
2013-08-30 17:02:00,82.0,44.0,-100.00,NE,50,3.0,8.0,26,0.00,,,0.00,617.000000,,2013-08-31 00:02:00,
2013-08-30 17:11:00,82.0,44.0,-100.00,NE,50,3.0,8.0,26,0.00,,,0.00,617.000000,,2013-08-31 00:11:00,
2013-08-30 17:21:00,82.0,44.0,-100.00,NE,50,3.0,8.0,26,0.00,,,0.00,617.000000,,2013-08-31 00:21:00,
2013-08-30 18:31:00,73.0,44.0,-100.00,North,10,4.0,12.0,36,0.00,,,0.00,206.000000,,2013-08-31 01:31:00,
2013-08-30 19:22:00,73.0,44.0,-100.00,North,10,4.0,12.0,36,0.00,,,0.00,206.000000,,2013-08-31 02:22:00,
2013-08-30 19:31:00,69.0,49.0,-100.00,North,355,2.0,8.0,49,0.00,,,0.00,46.000000,,2013-08-31 02:31:00,
2013-08-30 19:52:00,69.0,49.0,-100.00,North,355,2.0,8.0,49,0.00,,,0.00,46.000000,,2013-08-31 02:52:00,
2013-08-30 20:02:00,69.0,49.0,-100.00,North,355,2.0,8.0,49,0.00,,,0.00,46.000000,,2013-08-31 03:02:00,
2013-08-30 20:12:00,69.0,49.0,-100.00,North,355,2.0,8.0,49,0.00,,,0.00,46.000000,,2013-08-31 03:12:00,
2013-08-30 20:22:00,69.0,49.0,-100.00,North,355,2.0,8.0,49,0.00,,,0.00,46.000000,,2013-08-31 03:22:00,
2013-08-30 20:31:00,65.0,51.0,-100.00,NNW,339,2.0,5.0,60,0.00,,,0.00,2.000000,,2013-08-31 03:31:00,
2013-08-30 20:54:00,65.0,51.0,-100.00,NNW,339,2.0,5.0,60,0.00,,,0.00,2.000000,,2013-08-31 03:54:00,
2013-08-30 21:05:00,65.0,51.0,-100.00,NNW,339,2.0,5.0,60,0.00,,,0.00,2.000000,,2013-08-31 04:05:00,
2013-08-30 21:14:00,65.0,51.0,-100.00,NNW,339,2.0,5.0,60,0.00,,,0.00,2.000000,,2013-08-31 04:14:00,
2013-08-30 21:24:00,65.0,51.0,-100.00,NNW,339,2.0,5.0,60,0.00,,,0.00,2.000000,,2013-08-31 04:24:00,
2013-08-30 21:31:00,62.0,51.0,-100.00,NNW,340,2.0,5.0,68,0.00,,,0.00,0.000000,,2013-08-31 04:31:00,
2013-08-30 21:54:00,62.0,51.0,-100.00,NNW,340,2.0,5.0,68,0.00,,,0.00,0.000000,,2013-08-31 04:54:00,
2013-08-30 22:04:00,62.0,51.0,-100.00,NNW,340,2.0,5.0,68,0.00,,,0.00,0.000000,,2013-08-31 05:04:00,
2013-08-30 22:13:00,62.0,51.0,-100.00,NNW,340,2.0,5.0,68,0.00,,,0.00,0.000000,,2013-08-31 05:13:00,
2013-08-30 22:23:00,62.0,51.0,-100.00,NNW,340,2.0,5.0,68,0.00,,,0.00,0.000000,,2013-08-31 05:23:00,
2013-08-30 22:31:00,60.0,52.0,-100.00,WNW,302,1.0,4.0,76,0.00,,,0.00,0.000000,,2013-08-31 05:31:00,
2013-08-30 22:53:00,60.0,52.0,-100.00,WNW,302,1.0,4.0,76,0.00,,,0.00,0.000000,,2013-08-31 05:53:00,
2013-08-30 23:02:00,60.0,52.0,-100.00,WNW,302,1.0,4.0,76,0.00,,,0.00,0.000000,,2013-08-31 06:02:00,
2013-08-30 23:12:00,60.0,52.0,-100.00,WNW,302,1.0,4.0,76,0.00,,,0.00,0.000000,,2013-08-31 06:12:00,
2013-08-30 23:22:00,60.0,52.0,-100.00,WNW,302,1.0,4.0,76,0.00,,,0.00,0.000000,,2013-08-31 06:22:00,
2013-08-30 23:31:00,58.0,52.0,-100.00,NNW,328,1.0,4.0,79,0.00,,,0.00,0.000000,,2013-08-31 06:31:00,
2013-08-30 23:52:00,58.0,52.0,-100.00,NNW,328,1.0,4.0,79,0.00,,,0.00,0.000000,,2013-08-31 06:52:00,